sensor_id;sensor_type;location;lat;lon;timestamp;temperature;humidity
66726;HTU21D;53638;51.062;5.804;2024-02-04T00:03:04;10.22;-6.00
66726;HTU21D;53638;51.062;5.804;2024-02-04T00:06:43;10.22;-6.00
66726;HTU21D;53638;51.062;5.804;2024-02-04T00:09:17;10.20;-6.00
66726;HTU21D;53638;51.062;5.804;2024-02-04T00:50:12;10.20;-6.00
66726;HTU21D;53638;51.062;5.804;2024-02-04T00:54:41;10.21;-6.00
66726;HTU21D;53638;51.062;5.804;2024-02-04T00:57:41;10.14;-6.00
66726;HTU21D;53638;51.062;5.804;2024-02-04T01:00:10;10.18;-6.00
66726;HTU21D;53638;51.062;5.804;2024-02-04T01:02:39;10.21;-6.00
66726;HTU21D;53638;51.062;5.804;2024-02-04T01:05:06;10.18;-6.00
66726;HTU21D;53638;51.062;5.804;2024-02-04T01:07:40;10.19;-6.00
66726;HTU21D;53638;51.062;5.804;2024-02-04T01:10:50;10.22;-6.00
66726;HTU21D;53638;51.062;5.804;2024-02-04T01:13:20;10.27;-6.00
66726;HTU21D;53638;51.062;5.804;2024-02-04T01:15:51;10.24;-6.00
66726;HTU21D;53638;51.062;5.804;2024-02-04T01:18:17;10.15;-6.00
66726;HTU21D;53638;51.062;5.804;2024-02-04T01:20:46;10.20;-6.00
66726;HTU21D;53638;51.062;5.804;2024-02-04T01:23:14;10.26;-6.00
66726;HTU21D;53638;51.062;5.804;2024-02-04T01:26:26;10.48;-6.00
66726;HTU21D;53638;51.062;5.804;2024-02-04T01:28:52;10.42;-6.00
66726;HTU21D;53638;51.062;5.804;2024-02-04T01:31:22;10.43;-6.00
66726;HTU21D;53638;51.062;5.804;2024-02-04T01:33:54;10.42;-6.00
66726;HTU21D;53638;51.062;5.804;2024-02-04T01:36:25;10.36;-6.00
66726;HTU21D;53638;51.062;5.804;2024-02-04T01:38:51;10.33;-6.00
66726;HTU21D;53638;51.062;5.804;2024-02-04T01:41:19;10.40;-6.00
66726;HTU21D;53638;51.062;5.804;2024-02-04T01:44:00;10.34;-6.00
66726;HTU21D;53638;51.062;5.804;2024-02-04T01:46:50;10.33;-6.00
66726;HTU21D;53638;51.062;5.804;2024-02-04T01:49:20;10.38;-6.00
66726;HTU21D;53638;51.062;5.804;2024-02-04T01:51:55;10.39;-6.00
66726;HTU21D;53638;51.062;5.804;2024-02-04T01:54:24;10.44;-6.00
66726;HTU21D;53638;51.062;5.804;2024-02-04T01:56:55;10.41;-6.00
66726;HTU21D;53638;51.062;5.804;2024-02-04T01:59:23;10.56;-6.00
66726;HTU21D;53638;51.062;5.804;2024-02-04T02:02:00;10.56;-6.00
66726;HTU21D;53638;51.062;5.804;2024-02-04T02:04:26;10.56;-6.00
66726;HTU21D;53638;51.062;5.804;2024-02-04T02:06:59;10.43;-6.00
66726;HTU21D;53638;51.062;5.804;2024-02-04T02:09:26;10.50;-6.00
66726;HTU21D;53638;51.062;5.804;2024-02-04T02:12:07;10.51;-6.00
66726;HTU21D;53638;51.062;5.804;2024-02-04T02:14:56;10.53;-6.00
66726;HTU21D;53638;51.062;5.804;2024-02-04T02:17:31;10.51;-6.00
66726;HTU21D;53638;51.062;5.804;2024-02-04T02:20:12;10.53;-6.00
66726;HTU21D;53638;51.062;5.804;2024-02-04T02:22:48;10.72;-6.00
66726;HTU21D;53638;51.062;5.804;2024-02-04T02:25:59;10.56;-6.00
66726;HTU21D;53638;51.062;5.804;2024-02-04T02:28:26;10.65;-6.00
66726;HTU21D;53638;51.062;5.804;2024-02-04T02:30:55;10.74;-6.00
66726;HTU21D;53638;51.062;5.804;2024-02-04T02:33:27;10.84;-6.00
66726;HTU21D;53638;51.062;5.804;2024-02-04T02:35:57;10.69;-6.00
66726;HTU21D;53638;51.062;5.804;2024-02-04T02:41:30;10.57;-6.00
66726;HTU21D;53638;51.062;5.804;2024-02-04T02:43:58;10.57;-6.00
66726;HTU21D;53638;51.062;5.804;2024-02-04T02:46:28;10.71;-6.00
66726;HTU21D;53638;51.062;5.804;2024-02-04T02:48:55;10.67;-6.00
66726;HTU21D;53638;51.062;5.804;2024-02-04T02:51:21;10.54;-6.00
66726;HTU21D;53638;51.062;5.804;2024-02-04T02:53:47;10.58;-6.00
66726;HTU21D;53638;51.062;5.804;2024-02-04T02:56:13;10.54;-6.00
66726;HTU21D;53638;51.062;5.804;2024-02-04T02:58:39;10.64;-6.00
66726;HTU21D;53638;51.062;5.804;2024-02-04T03:01:04;10.68;-6.00
66726;HTU21D;53638;51.062;5.804;2024-02-04T03:03:30;10.53;-6.00
66726;HTU21D;53638;51.062;5.804;2024-02-04T03:06:25;10.72;-6.00
66726;HTU21D;53638;51.062;5.804;2024-02-04T03:08:51;10.62;-6.00
66726;HTU21D;53638;51.062;5.804;2024-02-04T03:11:23;10.63;-6.00
66726;HTU21D;53638;51.062;5.804;2024-02-04T03:13:58;10.58;-6.00
66726;HTU21D;53638;51.062;5.804;2024-02-04T03:16:24;10.60;-6.00
66726;HTU21D;53638;51.062;5.804;2024-02-04T03:18:52;10.59;-6.00
66726;HTU21D;53638;51.062;5.804;2024-02-04T03:21:18;10.67;-6.00
66726;HTU21D;53638;51.062;5.804;2024-02-04T03:23:57;10.66;-6.00
66726;HTU21D;53638;51.062;5.804;2024-02-04T03:26:23;10.62;-6.00
66726;HTU21D;53638;51.062;5.804;2024-02-04T03:28:52;10.70;-6.00
66726;HTU21D;53638;51.062;5.804;2024-02-04T03:31:21;10.65;-6.00
66726;HTU21D;53638;51.062;5.804;2024-02-04T03:33:47;10.66;-6.00
66726;HTU21D;53638;51.062;5.804;2024-02-04T03:36:19;10.72;-6.00
66726;HTU21D;53638;51.062;5.804;2024-02-04T03:38:47;10.68;-6.00
66726;HTU21D;53638;51.062;5.804;2024-02-04T03:41:16;10.72;-6.00
66726;HTU21D;53638;51.062;5.804;2024-02-04T03:43:42;10.77;-6.00
66726;HTU21D;53638;51.062;5.804;2024-02-04T03:46:11;10.73;-6.00
66726;HTU21D;53638;51.062;5.804;2024-02-04T03:48:37;10.87;-6.00
66726;HTU21D;53638;51.062;5.804;2024-02-04T03:51:04;10.89;-6.00
66726;HTU21D;53638;51.062;5.804;2024-02-04T03:53:30;10.62;-6.00
66726;HTU21D;53638;51.062;5.804;2024-02-04T03:55:56;10.59;-6.00
66726;HTU21D;53638;51.062;5.804;2024-02-04T03:58:22;10.45;-6.00
66726;HTU21D;53638;51.062;5.804;2024-02-04T04:01:20;10.62;-6.00
66726;HTU21D;53638;51.062;5.804;2024-02-04T04:03:47;10.57;-6.00
66726;HTU21D;53638;51.062;5.804;2024-02-04T04:06:13;10.52;-6.00
66726;HTU21D;53638;51.062;5.804;2024-02-04T04:08:39;10.55;-6.00
66726;HTU21D;53638;51.062;5.804;2024-02-04T04:11:08;10.54;-6.00
66726;HTU21D;53638;51.062;5.804;2024-02-04T04:13:35;10.57;-6.00
66726;HTU21D;53638;51.062;5.804;2024-02-04T04:16:03;10.75;-6.00
66726;HTU21D;53638;51.062;5.804;2024-02-04T04:18:30;10.67;-6.00
66726;HTU21D;53638;51.062;5.804;2024-02-04T04:20:56;10.71;-6.00
66726;HTU21D;53638;51.062;5.804;2024-02-04T04:23:22;10.54;-6.00
66726;HTU21D;53638;51.062;5.804;2024-02-04T04:25:48;10.52;-6.00
66726;HTU21D;53638;51.062;5.804;2024-02-04T04:28:14;10.55;-6.00
66726;HTU21D;53638;51.062;5.804;2024-02-04T04:30:40;10.55;-6.00
66726;HTU21D;53638;51.062;5.804;2024-02-04T04:33:06;10.53;-6.00
66726;HTU21D;53638;51.062;5.804;2024-02-04T04:35:33;10.55;-6.00
66726;HTU21D;53638;51.062;5.804;2024-02-04T04:38:00;10.54;-6.00
66726;HTU21D;53638;51.062;5.804;2024-02-04T04:40:26;10.51;-6.00
66726;HTU21D;53638;51.062;5.804;2024-02-04T04:42:52;10.73;-6.00
66726;HTU21D;53638;51.062;5.804;2024-02-04T04:45:18;10.85;-6.00
66726;HTU21D;53638;51.062;5.804;2024-02-04T04:47:44;10.67;-6.00
66726;HTU21D;53638;51.062;5.804;2024-02-04T04:50:09;10.78;-6.00
66726;HTU21D;53638;51.062;5.804;2024-02-04T04:52:35;10.82;-6.00
66726;HTU21D;53638;51.062;5.804;2024-02-04T04:55:02;10.88;-6.00
66726;HTU21D;53638;51.062;5.804;2024-02-04T04:57:28;10.63;-6.00
66726;HTU21D;53638;51.062;5.804;2024-02-04T04:59:54;10.70;-6.00
66726;HTU21D;53638;51.062;5.804;2024-02-04T05:02:20;10.65;-6.00
66726;HTU21D;53638;51.062;5.804;2024-02-04T05:04:46;10.65;-6.00
66726;HTU21D;53638;51.062;5.804;2024-02-04T05:07:14;10.63;-6.00
66726;HTU21D;53638;51.062;5.804;2024-02-04T05:09:40;10.63;-6.00
66726;HTU21D;53638;51.062;5.804;2024-02-04T05:12:08;10.65;-6.00
66726;HTU21D;53638;51.062;5.804;2024-02-04T05:14:35;10.72;-6.00
66726;HTU21D;53638;51.062;5.804;2024-02-04T05:17:01;10.65;-6.00
66726;HTU21D;53638;51.062;5.804;2024-02-04T05:19:27;10.64;-6.00
66726;HTU21D;53638;51.062;5.804;2024-02-04T05:21:53;10.67;-6.00
66726;HTU21D;53638;51.062;5.804;2024-02-04T05:24:19;10.66;-6.00
66726;HTU21D;53638;51.062;5.804;2024-02-04T05:26:50;10.66;-6.00
66726;HTU21D;53638;51.062;5.804;2024-02-04T05:29:16;10.58;-6.00
66726;HTU21D;53638;51.062;5.804;2024-02-04T05:31:42;10.67;-6.00
66726;HTU21D;53638;51.062;5.804;2024-02-04T05:34:09;10.68;-6.00
66726;HTU21D;53638;51.062;5.804;2024-02-04T05:36:35;10.62;-6.00
66726;HTU21D;53638;51.062;5.804;2024-02-04T05:39:15;10.62;-6.00
66726;HTU21D;53638;51.062;5.804;2024-02-04T05:41:42;10.66;-6.00
66726;HTU21D;53638;51.062;5.804;2024-02-04T05:44:15;10.58;-6.00
66726;HTU21D;53638;51.062;5.804;2024-02-04T05:46:44;10.67;-6.00
66726;HTU21D;53638;51.062;5.804;2024-02-04T05:49:15;10.62;-6.00
66726;HTU21D;53638;51.062;5.804;2024-02-04T05:51:46;10.59;-6.00
66726;HTU21D;53638;51.062;5.804;2024-02-04T05:54:15;10.54;-6.00
66726;HTU21D;53638;51.062;5.804;2024-02-04T05:56:41;10.59;-6.00
66726;HTU21D;53638;51.062;5.804;2024-02-04T05:59:07;10.49;-6.00
66726;HTU21D;53638;51.062;5.804;2024-02-04T06:01:33;10.44;-6.00
66726;HTU21D;53638;51.062;5.804;2024-02-04T06:03:59;10.57;-6.00
66726;HTU21D;53638;51.062;5.804;2024-02-04T06:06:26;10.46;-6.00
66726;HTU21D;53638;51.062;5.804;2024-02-04T06:09:28;10.41;-6.00
66726;HTU21D;53638;51.062;5.804;2024-02-04T06:12:29;10.49;-6.00
66726;HTU21D;53638;51.062;5.804;2024-02-04T06:14:55;10.53;-6.00
66726;HTU21D;53638;51.062;5.804;2024-02-04T06:17:49;10.46;-6.00
66726;HTU21D;53638;51.062;5.804;2024-02-04T06:20:17;10.46;-6.00
66726;HTU21D;53638;51.062;5.804;2024-02-04T06:22:45;10.62;-6.00
66726;HTU21D;53638;51.062;5.804;2024-02-04T06:25:12;10.56;-6.00
66726;HTU21D;53638;51.062;5.804;2024-02-04T06:27:39;10.55;-6.00
66726;HTU21D;53638;51.062;5.804;2024-02-04T06:30:10;10.64;-6.00
66726;HTU21D;53638;51.062;5.804;2024-02-04T06:32:36;10.57;-6.00
66726;HTU21D;53638;51.062;5.804;2024-02-04T06:35:08;10.44;-6.00
66726;HTU21D;53638;51.062;5.804;2024-02-04T06:37:43;10.41;-6.00
66726;HTU21D;53638;51.062;5.804;2024-02-04T06:40:11;10.44;-6.00
66726;HTU21D;53638;51.062;5.804;2024-02-04T06:42:39;10.49;-6.00
66726;HTU21D;53638;51.062;5.804;2024-02-04T06:45:07;10.57;-6.00
66726;HTU21D;53638;51.062;5.804;2024-02-04T06:47:34;10.48;-6.00
66726;HTU21D;53638;51.062;5.804;2024-02-04T06:50:01;10.40;17.89
66726;HTU21D;53638;51.062;5.804;2024-02-04T06:52:32;10.40;73.06
66726;HTU21D;53638;51.062;5.804;2024-02-04T06:54:58;10.39;102.66
66726;HTU21D;53638;51.062;5.804;2024-02-04T06:57:24;10.33;118.99
66726;HTU21D;53638;51.062;5.804;2024-02-04T06:59:50;10.40;98.31
66726;HTU21D;53638;51.062;5.804;2024-02-04T07:02:16;10.41;-6.00
66726;HTU21D;53638;51.062;5.804;2024-02-04T07:04:45;10.41;-6.00
66726;HTU21D;53638;51.062;5.804;2024-02-04T07:07:13;10.37;-6.00
66726;HTU21D;53638;51.062;5.804;2024-02-04T07:09:51;10.41;-6.00
66726;HTU21D;53638;51.062;5.804;2024-02-04T07:12:18;10.43;-6.00
66726;HTU21D;53638;51.062;5.804;2024-02-04T07:14:44;10.30;-6.00
66726;HTU21D;53638;51.062;5.804;2024-02-04T07:17:10;10.34;-6.00
66726;HTU21D;53638;51.062;5.804;2024-02-04T07:19:37;10.39;-6.00
66726;HTU21D;53638;51.062;5.804;2024-02-04T07:22:03;10.43;-6.00
66726;HTU21D;53638;51.062;5.804;2024-02-04T07:24:29;10.38;7.83
66726;HTU21D;53638;51.062;5.804;2024-02-04T07:26:55;10.42;-6.00
66726;HTU21D;53638;51.062;5.804;2024-02-04T07:29:21;10.40;-6.00
66726;HTU21D;53638;51.062;5.804;2024-02-04T07:31:47;10.53;-6.00
66726;HTU21D;53638;51.062;5.804;2024-02-04T07:34:13;10.69;-6.00
66726;HTU21D;53638;51.062;5.804;2024-02-04T07:36:40;10.67;-6.00
66726;HTU21D;53638;51.062;5.804;2024-02-04T07:39:06;10.59;-6.00
66726;HTU21D;53638;51.062;5.804;2024-02-04T07:41:32;10.57;-6.00
66726;HTU21D;53638;51.062;5.804;2024-02-04T07:43:58;10.40;-6.00
66726;HTU21D;53638;51.062;5.804;2024-02-04T07:46:24;10.54;-6.00
66726;HTU21D;53638;51.062;5.804;2024-02-04T07:48:49;10.51;-6.00
66726;HTU21D;53638;51.062;5.804;2024-02-04T07:51:16;10.41;-6.00
66726;HTU21D;53638;51.062;5.804;2024-02-04T07:53:44;10.40;-6.00
66726;HTU21D;53638;51.062;5.804;2024-02-04T07:56:11;10.42;1.55
66726;HTU21D;53638;51.062;5.804;2024-02-04T07:58:37;10.45;5.77
66726;HTU21D;53638;51.062;5.804;2024-02-04T08:01:07;10.40;3.91
66726;HTU21D;53638;51.062;5.804;2024-02-04T08:03:33;10.41;-1.96
66726;HTU21D;53638;51.062;5.804;2024-02-04T08:05:59;10.45;-6.00
66726;HTU21D;53638;51.062;5.804;2024-02-04T08:08:28;10.42;-6.00
66726;HTU21D;53638;51.062;5.804;2024-02-04T08:10:54;10.48;-6.00
66726;HTU21D;53638;51.062;5.804;2024-02-04T08:13:20;10.51;-6.00
66726;HTU21D;53638;51.062;5.804;2024-02-04T08:15:46;10.56;-6.00
66726;HTU21D;53638;51.062;5.804;2024-02-04T08:18:12;10.59;-6.00
66726;HTU21D;53638;51.062;5.804;2024-02-04T08:20:38;10.53;-6.00
66726;HTU21D;53638;51.062;5.804;2024-02-04T08:23:04;10.54;-6.00
66726;HTU21D;53638;51.062;5.804;2024-02-04T08:25:30;10.40;-6.00
66726;HTU21D;53638;51.062;5.804;2024-02-04T08:27:58;10.49;-6.00
66726;HTU21D;53638;51.062;5.804;2024-02-04T08:30:24;10.48;-6.00
66726;HTU21D;53638;51.062;5.804;2024-02-04T08:32:50;10.52;-6.00
66726;HTU21D;53638;51.062;5.804;2024-02-04T08:35:15;10.46;-6.00
66726;HTU21D;53638;51.062;5.804;2024-02-04T08:37:46;10.50;-6.00
66726;HTU21D;53638;51.062;5.804;2024-02-04T08:40:15;10.65;-6.00
66726;HTU21D;53638;51.062;5.804;2024-02-04T08:42:41;10.66;-6.00
66726;HTU21D;53638;51.062;5.804;2024-02-04T08:45:07;10.71;-6.00
66726;HTU21D;53638;51.062;5.804;2024-02-04T08:47:34;10.79;-6.00
66726;HTU21D;53638;51.062;5.804;2024-02-04T08:50:00;10.67;-6.00
66726;HTU21D;53638;51.062;5.804;2024-02-04T08:52:26;10.78;-6.00
66726;HTU21D;53638;51.062;5.804;2024-02-04T08:54:52;10.94;-6.00
66726;HTU21D;53638;51.062;5.804;2024-02-04T08:57:18;10.84;-6.00
66726;HTU21D;53638;51.062;5.804;2024-02-04T08:59:44;10.67;-6.00
66726;HTU21D;53638;51.062;5.804;2024-02-04T09:02:10;10.63;-6.00
66726;HTU21D;53638;51.062;5.804;2024-02-04T09:04:35;10.77;-6.00
66726;HTU21D;53638;51.062;5.804;2024-02-04T09:07:07;10.71;-6.00
66726;HTU21D;53638;51.062;5.804;2024-02-04T09:09:33;10.77;-6.00
66726;HTU21D;53638;51.062;5.804;2024-02-04T09:11:59;10.73;-6.00
66726;HTU21D;53638;51.062;5.804;2024-02-04T09:14:25;10.70;-6.00
66726;HTU21D;53638;51.062;5.804;2024-02-04T09:16:51;10.69;-6.00
66726;HTU21D;53638;51.062;5.804;2024-02-04T09:19:17;10.84;-6.00
66726;HTU21D;53638;51.062;5.804;2024-02-04T09:21:43;10.82;-6.00
66726;HTU21D;53638;51.062;5.804;2024-02-04T09:24:09;10.77;-6.00
66726;HTU21D;53638;51.062;5.804;2024-02-04T09:26:35;10.86;-6.00
66726;HTU21D;53638;51.062;5.804;2024-02-04T09:29:01;10.96;-6.00
66726;HTU21D;53638;51.062;5.804;2024-02-04T09:31:27;10.96;-6.00
66726;HTU21D;53638;51.062;5.804;2024-02-04T09:33:54;11.07;-6.00
66726;HTU21D;53638;51.062;5.804;2024-02-04T09:36:20;10.81;-6.00
66726;HTU21D;53638;51.062;5.804;2024-02-04T09:38:48;10.87;-6.00
66726;HTU21D;53638;51.062;5.804;2024-02-04T09:41:14;10.82;-6.00
66726;HTU21D;53638;51.062;5.804;2024-02-04T09:43:41;10.95;-6.00
66726;HTU21D;53638;51.062;5.804;2024-02-04T09:46:08;10.94;-6.00
66726;HTU21D;53638;51.062;5.804;2024-02-04T09:48:38;10.95;-6.00
66726;HTU21D;53638;51.062;5.804;2024-02-04T09:51:06;10.99;-6.00
66726;HTU21D;53638;51.062;5.804;2024-02-04T09:53:34;11.13;-6.00
66726;HTU21D;53638;51.062;5.804;2024-02-04T09:56:02;11.12;-6.00
66726;HTU21D;53638;51.062;5.804;2024-02-04T09:58:29;11.13;-6.00
66726;HTU21D;53638;51.062;5.804;2024-02-04T10:00:55;10.97;-6.00
66726;HTU21D;53638;51.062;5.804;2024-02-04T10:03:21;10.97;-6.00
66726;HTU21D;53638;51.062;5.804;2024-02-04T10:05:47;10.93;-6.00
66726;HTU21D;53638;51.062;5.804;2024-02-04T10:08:14;11.10;-6.00
66726;HTU21D;53638;51.062;5.804;2024-02-04T10:10:40;11.02;-6.00
66726;HTU21D;53638;51.062;5.804;2024-02-04T10:13:09;11.01;118.99
66726;HTU21D;53638;51.062;5.804;2024-02-04T10:15:35;10.96;118.99
66726;HTU21D;53638;51.062;5.804;2024-02-04T10:18:04;10.82;118.99
66726;HTU21D;53638;51.062;5.804;2024-02-04T10:20:31;10.98;-6.00
66726;HTU21D;53638;51.062;5.804;2024-02-04T10:22:58;11.02;-6.00
66726;HTU21D;53638;51.062;5.804;2024-02-04T10:25:24;11.15;-6.00
66726;HTU21D;53638;51.062;5.804;2024-02-04T10:27:50;11.01;-6.00
66726;HTU21D;53638;51.062;5.804;2024-02-04T10:30:19;10.97;-6.00
66726;HTU21D;53638;51.062;5.804;2024-02-04T10:32:46;10.98;-6.00
66726;HTU21D;53638;51.062;5.804;2024-02-04T10:35:12;11.09;-6.00
66726;HTU21D;53638;51.062;5.804;2024-02-04T10:37:38;11.01;-6.00
66726;HTU21D;53638;51.062;5.804;2024-02-04T10:40:05;11.07;-6.00
66726;HTU21D;53638;51.062;5.804;2024-02-04T10:42:31;11.00;-6.00
66726;HTU21D;53638;51.062;5.804;2024-02-04T10:44:58;11.11;-6.00
66726;HTU21D;53638;51.062;5.804;2024-02-04T10:47:30;11.16;-6.00
66726;HTU21D;53638;51.062;5.804;2024-02-04T10:49:58;11.03;-6.00
66726;HTU21D;53638;51.062;5.804;2024-02-04T10:52:27;11.31;-6.00
66726;HTU21D;53638;51.062;5.804;2024-02-04T10:54:53;11.17;-6.00
66726;HTU21D;53638;51.062;5.804;2024-02-04T10:57:21;11.16;-6.00
66726;HTU21D;53638;51.062;5.804;2024-02-04T10:59:48;11.25;-6.00
66726;HTU21D;53638;51.062;5.804;2024-02-04T11:02:15;11.22;-6.00
66726;HTU21D;53638;51.062;5.804;2024-02-04T11:04:43;11.15;-6.00
66726;HTU21D;53638;51.062;5.804;2024-02-04T11:07:10;11.12;-6.00
66726;HTU21D;53638;51.062;5.804;2024-02-04T11:09:40;11.13;-6.00
66726;HTU21D;53638;51.062;5.804;2024-02-04T11:12:11;11.09;-6.00
66726;HTU21D;53638;51.062;5.804;2024-02-04T11:14:41;10.92;118.99
66726;HTU21D;53638;51.062;5.804;2024-02-04T11:17:26;10.96;118.99
66726;HTU21D;53638;51.062;5.804;2024-02-04T11:20:24;10.87;-6.00
66726;HTU21D;53638;51.062;5.804;2024-02-04T11:23:19;10.73;-6.00
66726;HTU21D;53638;51.062;5.804;2024-02-04T11:25:52;10.75;-6.00
66726;HTU21D;53638;51.062;5.804;2024-02-04T11:28:21;10.69;-6.00
66726;HTU21D;53638;51.062;5.804;2024-02-04T11:30:48;10.72;92.75
66726;HTU21D;53638;51.062;5.804;2024-02-04T11:33:18;10.62;118.99
66726;HTU21D;53638;51.062;5.804;2024-02-04T11:35:45;10.56;118.99
66726;HTU21D;53638;51.062;5.804;2024-02-04T11:38:11;10.62;118.99
66726;HTU21D;53638;51.062;5.804;2024-02-04T11:40:39;10.57;118.99
66726;HTU21D;53638;51.062;5.804;2024-02-04T11:43:10;10.55;118.99
66726;HTU21D;53638;51.062;5.804;2024-02-04T11:45:39;10.55;100.82
66726;HTU21D;53638;51.062;5.804;2024-02-04T11:48:07;10.59;93.19
66726;HTU21D;53638;51.062;5.804;2024-02-04T11:50:34;10.73;103.41
66726;HTU21D;53638;51.062;5.804;2024-02-04T11:53:06;10.66;87.54
66726;HTU21D;53638;51.062;5.804;2024-02-04T11:55:34;10.71;69.36
66726;HTU21D;53638;51.062;5.804;2024-02-04T11:58:01;10.77;60.54
66726;HTU21D;53638;51.062;5.804;2024-02-04T12:00:27;10.79;46.47
66726;HTU21D;53638;51.062;5.804;2024-02-04T12:03:05;10.64;24.08
66726;HTU21D;53638;51.062;5.804;2024-02-04T12:05:40;10.72;32.44
66726;HTU21D;53638;51.062;5.804;2024-02-04T12:08:07;10.70;26.25
66726;HTU21D;53638;51.062;5.804;2024-02-04T12:10:36;10.69;21.84
66726;HTU21D;53638;51.062;5.804;2024-02-04T12:13:05;10.66;9.88
66726;HTU21D;53638;51.062;5.804;2024-02-04T12:15:34;10.66;-3.37
66726;HTU21D;53638;51.062;5.804;2024-02-04T12:18:07;10.59;-6.00
66726;HTU21D;53638;51.062;5.804;2024-02-04T12:20:33;10.67;-6.00
66726;HTU21D;53638;51.062;5.804;2024-02-04T12:23:01;10.68;-6.00
66726;HTU21D;53638;51.062;5.804;2024-02-04T12:25:28;10.73;-6.00
66726;HTU21D;53638;51.062;5.804;2024-02-04T12:28:01;10.69;-6.00
66726;HTU21D;53638;51.062;5.804;2024-02-04T12:30:29;10.72;-6.00
66726;HTU21D;53638;51.062;5.804;2024-02-04T12:33:02;10.79;-6.00
66726;HTU21D;53638;51.062;5.804;2024-02-04T12:35:30;10.83;-6.00
66726;HTU21D;53638;51.062;5.804;2024-02-04T12:37:58;10.78;-6.00
66726;HTU21D;53638;51.062;5.804;2024-02-04T12:40:28;11.00;-6.00
66726;HTU21D;53638;51.062;5.804;2024-02-04T12:42:57;10.92;-6.00
66726;HTU21D;53638;51.062;5.804;2024-02-04T12:45:25;10.96;-6.00
66726;HTU21D;53638;51.062;5.804;2024-02-04T12:47:52;11.08;-6.00
66726;HTU21D;53638;51.062;5.804;2024-02-04T12:50:20;11.05;-6.00
66726;HTU21D;53638;51.062;5.804;2024-02-04T12:52:49;11.07;-6.00
66726;HTU21D;53638;51.062;5.804;2024-02-04T12:55:42;11.00;-6.00
66726;HTU21D;53638;51.062;5.804;2024-02-04T12:58:10;10.99;-6.00
66726;HTU21D;53638;51.062;5.804;2024-02-04T13:00:38;10.99;-6.00
66726;HTU21D;53638;51.062;5.804;2024-02-04T13:03:06;11.03;-6.00
66726;HTU21D;53638;51.062;5.804;2024-02-04T13:05:34;11.09;-6.00
66726;HTU21D;53638;51.062;5.804;2024-02-04T13:08:02;11.12;-6.00
66726;HTU21D;53638;51.062;5.804;2024-02-04T13:10:33;11.12;-6.00
66726;HTU21D;53638;51.062;5.804;2024-02-04T13:13:04;11.20;-6.00
66726;HTU21D;53638;51.062;5.804;2024-02-04T13:15:39;11.10;-6.00
66726;HTU21D;53638;51.062;5.804;2024-02-04T13:18:06;11.23;-6.00
66726;HTU21D;53638;51.062;5.804;2024-02-04T13:20:32;11.23;-6.00
66726;HTU21D;53638;51.062;5.804;2024-02-04T13:22:59;11.28;-6.00
66726;HTU21D;53638;51.062;5.804;2024-02-04T13:25:26;11.28;-6.00
66726;HTU21D;53638;51.062;5.804;2024-02-04T13:27:55;11.31;-6.00
66726;HTU21D;53638;51.062;5.804;2024-02-04T13:30:21;11.42;-6.00
66726;HTU21D;53638;51.062;5.804;2024-02-04T13:32:46;11.37;-6.00
66726;HTU21D;53638;51.062;5.804;2024-02-04T13:35:12;11.31;-6.00
66726;HTU21D;53638;51.062;5.804;2024-02-04T13:37:44;11.24;-6.00
66726;HTU21D;53638;51.062;5.804;2024-02-04T13:40:14;11.30;-6.00
66726;HTU21D;53638;51.062;5.804;2024-02-04T13:42:40;11.17;-6.00
66726;HTU21D;53638;51.062;5.804;2024-02-04T13:45:07;11.15;-6.00
66726;HTU21D;53638;51.062;5.804;2024-02-04T13:47:34;11.22;-6.00
66726;HTU21D;53638;51.062;5.804;2024-02-04T13:50:01;11.17;-6.00
66726;HTU21D;53638;51.062;5.804;2024-02-04T13:52:27;11.20;-6.00
66726;HTU21D;53638;51.062;5.804;2024-02-04T13:54:53;11.17;-6.00
66726;HTU21D;53638;51.062;5.804;2024-02-04T13:57:19;11.14;-6.00
66726;HTU21D;53638;51.062;5.804;2024-02-04T13:59:44;11.15;-6.00
66726;HTU21D;53638;51.062;5.804;2024-02-04T14:02:10;11.22;-6.00
66726;HTU21D;53638;51.062;5.804;2024-02-04T14:04:37;11.19;-6.00
66726;HTU21D;53638;51.062;5.804;2024-02-04T14:07:03;11.13;-6.00
66726;HTU21D;53638;51.062;5.804;2024-02-04T14:09:29;11.07;-6.00
66726;HTU21D;53638;51.062;5.804;2024-02-04T14:11:55;11.07;-6.00
66726;HTU21D;53638;51.062;5.804;2024-02-04T14:14:23;11.24;-6.00
66726;HTU21D;53638;51.062;5.804;2024-02-04T14:16:49;11.25;-6.00
66726;HTU21D;53638;51.062;5.804;2024-02-04T14:19:16;11.25;-6.00
66726;HTU21D;53638;51.062;5.804;2024-02-04T14:21:42;11.28;-6.00
66726;HTU21D;53638;51.062;5.804;2024-02-04T14:24:09;11.34;-6.00
66726;HTU21D;53638;51.062;5.804;2024-02-04T14:26:35;11.41;-6.00
66726;HTU21D;53638;51.062;5.804;2024-02-04T14:29:01;11.39;-6.00
66726;HTU21D;53638;51.062;5.804;2024-02-04T14:31:27;11.42;-6.00
66726;HTU21D;53638;51.062;5.804;2024-02-04T14:33:53;11.28;-6.00
66726;HTU21D;53638;51.062;5.804;2024-02-04T14:36:19;11.34;-6.00
66726;HTU21D;53638;51.062;5.804;2024-02-04T14:38:45;11.38;-6.00
66726;HTU21D;53638;51.062;5.804;2024-02-04T14:41:11;11.27;-6.00
66726;HTU21D;53638;51.062;5.804;2024-02-04T14:43:38;11.33;-6.00
66726;HTU21D;53638;51.062;5.804;2024-02-04T14:46:04;11.24;-6.00
66726;HTU21D;53638;51.062;5.804;2024-02-04T14:48:30;11.25;-6.00
66726;HTU21D;53638;51.062;5.804;2024-02-04T14:50:56;11.14;-6.00
66726;HTU21D;53638;51.062;5.804;2024-02-04T14:53:24;11.25;-6.00
66726;HTU21D;53638;51.062;5.804;2024-02-04T14:55:50;11.24;-6.00
66726;HTU21D;53638;51.062;5.804;2024-02-04T14:58:16;11.23;-6.00
66726;HTU21D;53638;51.062;5.804;2024-02-04T15:00:43;11.15;-6.00
66726;HTU21D;53638;51.062;5.804;2024-02-04T15:03:09;11.12;-6.00
66726;HTU21D;53638;51.062;5.804;2024-02-04T15:05:35;11.13;-6.00
66726;HTU21D;53638;51.062;5.804;2024-02-04T15:08:01;10.97;-6.00
66726;HTU21D;53638;51.062;5.804;2024-02-04T15:10:27;10.93;-6.00
66726;HTU21D;53638;51.062;5.804;2024-02-04T15:12:53;10.88;-6.00
66726;HTU21D;53638;51.062;5.804;2024-02-04T15:15:20;10.84;-6.00
66726;HTU21D;53638;51.062;5.804;2024-02-04T15:17:46;10.75;-6.00
66726;HTU21D;53638;51.062;5.804;2024-02-04T15:20:13;10.86;-6.00
66726;HTU21D;53638;51.062;5.804;2024-02-04T15:22:41;10.81;1.53
66726;HTU21D;53638;51.062;5.804;2024-02-04T15:25:09;10.78;-6.00
66726;HTU21D;53638;51.062;5.804;2024-02-04T15:27:36;10.86;-6.00
66726;HTU21D;53638;51.062;5.804;2024-02-04T15:30:03;10.77;-6.00
66726;HTU21D;53638;51.062;5.804;2024-02-04T15:32:30;10.73;-6.00
66726;HTU21D;53638;51.062;5.804;2024-02-04T15:34:56;10.77;-6.00
66726;HTU21D;53638;51.062;5.804;2024-02-04T15:37:22;10.78;-6.00
66726;HTU21D;53638;51.062;5.804;2024-02-04T15:39:48;10.70;-6.00
66726;HTU21D;53638;51.062;5.804;2024-02-04T15:42:14;10.74;-6.00
66726;HTU21D;53638;51.062;5.804;2024-02-04T15:44:40;10.72;-6.00
66726;HTU21D;53638;51.062;5.804;2024-02-04T15:47:06;10.78;-6.00
66726;HTU21D;53638;51.062;5.804;2024-02-04T15:49:36;10.73;-6.00
66726;HTU21D;53638;51.062;5.804;2024-02-04T15:52:04;10.90;-6.00
66726;HTU21D;53638;51.062;5.804;2024-02-04T15:54:39;10.83;-6.00
66726;HTU21D;53638;51.062;5.804;2024-02-04T15:57:07;10.90;-6.00
66726;HTU21D;53638;51.062;5.804;2024-02-04T15:59:50;10.80;-6.00
66726;HTU21D;53638;51.062;5.804;2024-02-04T16:02:17;10.75;-6.00
66726;HTU21D;53638;51.062;5.804;2024-02-04T16:04:43;10.80;-6.00
66726;HTU21D;53638;51.062;5.804;2024-02-04T16:07:13;10.77;-6.00
66726;HTU21D;53638;51.062;5.804;2024-02-04T16:09:39;10.77;-6.00
66726;HTU21D;53638;51.062;5.804;2024-02-04T16:12:08;10.71;-6.00